• Join FlightAware (Why Join?)
  • Login
  • US Flag 
10:31PM EST


 

Airport Tracker/Info


-or-


 

Live Flight TrackerFlight Track Log ✈ SWA414 ✈ 08-May-2013 ✈ KMDW - KTUL

Flight Track Log - Related Links

Times and Time Zones

All times are in EDT time to prevent confusion due to time zone crossing. See the SWA414 flight status page for this flight to view local times or setup timezone preferences in your user account.

Time Position Orientation Groundspeed Altitude Reporting Facility
EDT Latitude Longitude Course Direction KTS MPH feet Rate Location/Type
06:47PM 41.8000 -87.7167 207° Southwest 155 178 2,200  Level Chicago TRACON
06:49PM 41.6994 -87.6700 161° South 248 285 5,800 1,380 Climbing Chicago Center
06:50PM 41.6314 -87.7275 212° Southwest 257 296 6,600 1,080 Climbing Chicago Center
06:51PM 41.5881 -87.8108 235° Southwest 272 313 8,100 1,500 Climbing Chicago Center
06:52PM 41.5456 -87.8950 236° Southwest 275 316 9,800 1,380 Climbing Chicago Center
06:53PM 41.3735 -88.1733 207° Southwest  Level FlightAware Approximate
06:53PM 41.5025 -87.9794 236° Southwest 277 319 11,000  Level Chicago Center
06:55PM 41.4356 -88.0606 222° Southwest 327 376 12,900 960 Climbing Chicago Center
06:56PM 41.3469 -88.1064 201° Southwest 343 395 13,000 420 Climbing Chicago Center
06:57PM 41.2686 -88.1711 212° Southwest 341 392 13,800 2,220 Climbing Chicago Center
06:58PM 41.1708 -88.2514 212° Southwest 356 410 17,700 3,480 Climbing Chicago Center
06:59PM 41.0731 -88.2994 200° South 373 429 21,000 3,120 Climbing Chicago Center
07:00PM 40.9706 -88.3486 200° South 390 449 24,200 2,820 Climbing Chicago Center
07:01PM 40.8661 -88.4083 203° Southwest 408 470 26,900 2,400 Climbing Chicago Center
07:02PM 40.7764 -88.5072 220° Southwest 417 480 29,200 2,340 Climbing Chicago Center
07:03PM 40.6656 -88.6264 219° Southwest 430 495 31,800 2,280 Climbing Chicago Center
07:04PM 40.5842 -88.7369 226° Southwest 425 489 34,000 1,020 Climbing Chicago Center
07:05PM 40.5081 -88.8550 230° Southwest 423 487 34,000 420 Level Chicago Center
07:06PM 40.4244 -88.9817 229° Southwest 423 487 34,900 1,560 Climbing Chicago Center
07:07PM 40.3486 -89.0953 229° Southwest 415 478 37,300 1,740 Climbing Chicago Center
07:08PM 40.2747 -89.2078 229° Southwest 409 471 38,600 1,140 Climbing Chicago Center
07:09PM 40.1978 -89.3225 229° Southwest 417 480 39,700 660 Climbing Chicago Center
07:10PM 40.1219 -89.4375 229° Southwest 417 480 40,000 120 Climbing Chicago Center
07:11PM 40.0453 -89.5497 228° Southwest 413 475 40,000  Level Chicago Center
07:12PM 39.9836 -89.6453 230° Southwest 417 480 40,000  Level Kansas City Center
07:13PM 39.9069 -89.7586 229° Southwest 416 479 40,000  Level Kansas City Center
07:14PM 39.8311 -89.8708 229° Southwest 413 475 40,000  Level Kansas City Center
07:15PM 39.7547 -89.9833 229° Southwest 413 475 40,000  Level Kansas City Center
07:16PM 39.6775 -90.0969 229° Southwest 413 475 40,000  Level Kansas City Center
07:17PM 39.6022 -90.2089 229° Southwest 414 476 40,000  Level Kansas City Center
07:18PM 39.5100 -90.3425 228° Southwest 415 478 40,000  Level Kansas City Center
07:19PM 39.4331 -90.4547 228° Southwest 417 480 40,000  Level Kansas City Center
07:20PM 39.3569 -90.5661 229° Southwest 417 480 40,000  Level Kansas City Center
07:21PM 39.2789 -90.6775 228° Southwest 420 483 40,000  Level Kansas City Center
07:22PM 39.2039 -90.7867 228° Southwest 414 476 40,000  Level Kansas City Center
07:23PM 39.1122 -90.9181 228° Southwest 414 476 40,000  Level Kansas City Center
07:24PM 39.0364 -91.0272 228° Southwest 413 475 40,000  Level Kansas City Center
07:25PM 38.9600 -91.1356 228° Southwest 413 475 40,000  Level Kansas City Center
07:26PM 38.8842 -91.2447 228° Southwest 413 475 40,000  Level Kansas City Center
07:27PM 38.8067 -91.3531 227° Southwest 413 475 40,000  Level Kansas City Center
07:28PM 38.7308 -91.4606 228° Southwest 411 473 40,000  Level Kansas City Center
07:29PM 38.6436 -91.5831 228° Southwest 408 470 40,000  Level Kansas City Center
07:30PM 38.5656 -91.6906 227° Southwest 409 471 40,000  Level Kansas City Center
07:31PM 38.4886 -91.7994 228° Southwest 411 473 40,000  Level Kansas City Center
07:32PM 38.4094 -91.9078 227° Southwest 415 478 40,000  Level Kansas City Center
07:33PM 38.3150 -92.0381 227° Southwest 416 479 40,000  Level Kansas City Center
07:34PM 38.2361 -92.1456 227° Southwest 415 478 40,000  Level Kansas City Center
07:35PM 38.1556 -92.2561 227° Southwest 415 478 40,000  Level Kansas City Center
07:37PM 38.0753 -92.3647 227° Southwest 419 482 40,000  Level Kansas City Center
07:38PM 37.9975 -92.4731 228° Southwest 419 482 40,000  Level Kansas City Center
07:39PM 37.9217 -92.5789 228° Southwest 413 475 40,000  Level Kansas City Center
07:40PM 37.8428 -92.6839 226° Southwest 412 474 40,000  Level Kansas City Center
07:41PM 37.7553 -92.8008 227° Southwest 411 473 40,000  Level Kansas City Center
07:42PM 37.6764 -92.9067 227° Southwest 413 475 40,000  Level Kansas City Center
07:43PM 37.5967 -93.0117 226° Southwest 413 475 40,000  Level Kansas City Center
07:44PM 37.5175 -93.1208 228° Southwest 419 482 40,000  Level Kansas City Center
07:45PM 37.4356 -93.2289 226° Southwest 424 488 40,000  Level Kansas City Center
07:46PM 37.3558 -93.3358 227° Southwest 421 484 40,000  Level Kansas City Center
07:47PM 37.3056 -93.5022 249° West 424 488 40,000 -300 Level Kansas City Center
07:48PM 37.2650 -93.6353 249° West 413 475 39,500 -780 Descending Kansas City Center
07:49PM 37.2231 -93.7622 247° West 398 458 38,500 -1,020 Descending Kansas City Center
07:50PM 37.1817 -93.8933 248° West 401 461 37,500 -1,200 Descending Kansas City Center
07:51PM 37.1417 -94.0219 249° West 398 458 36,100 -1,320 Descending Kansas City Center
07:52PM 37.1033 -94.1419 248° West 398 458 34,800 -1,320 Descending Kansas City Center
07:53PM 37.0536 -94.3008 249° West 405 466 33,400 -1,200 Descending Kansas City Center
07:54PM 37.0114 -94.4333 248° West 410 472 32,400 -1,020 Descending Kansas City Center
07:55PM 36.9689 -94.5681 248° West 415 478 31,400 -1,860 Descending Kansas City Center
07:56PM 36.9633 -94.7075 267° West 413 475 28,600 -2,700 Descending Kansas City Center
07:57PM 36.9636 -94.8428 270° West 398 458 25,900 -2,400 Descending Kansas City Center
07:58PM 36.8961 -94.9436 230° Southwest 382 440 23,800 -2,520 Descending Kansas City Center
07:59PM 36.8189 -95.0358 224° Southwest 382 440 20,800 -2,880 Descending Kansas City Center
08:00PM 36.7311 -95.1436 225° Southwest 373 429 18,000 -2,580 Descending Kansas City Center
08:01PM 36.6900 -95.1914 223° Southwest 354 407 16,600 -2,160 Descending Kansas City Center
08:01PM 36.6619 -95.2275 226° Southwest 356 410 15,800 -2,280 Descending Kansas City Center
08:02PM 36.6128 -95.2881 225° Southwest 339 390 14,100 -2,160 Descending Kansas City Center
08:02PM 36.5953 -95.3086 223° Southwest 341 392 13,600 -2,220 Descending Kansas City Center
08:03PM 36.5531 -95.3717 230° Southwest 325 374 11,900 -2,220 Descending Kansas City Center
08:03PM 36.5419 -95.3964 241° Southwest 333 383 11,400 -1,200 Descending Kansas City Center
08:04PM 36.5136 -95.4708 245° Southwest 322 371 10,700 -1,020 Descending Kansas City Center
08:04PM 36.5042 -95.4928 242° Southwest 320 368 10,400 -900 Descending Kansas City Center
08:05PM 36.4778 -95.5639 245° Southwest 300 345 9,800 -900 Descending Kansas City Center
08:05PM 36.4697 -95.5806 239° Southwest 292 336 9,500 -1,320 Descending Kansas City Center
08:06PM 36.4450 -95.6464 245° Southwest 264 304 8,500 -1,560 Descending Kansas City Center
08:06PM 36.4333 -95.6800 247° West 269 310 7,900 -1,620 Descending Kansas City Center
08:07PM 36.4150 -95.7361 248° West 257 296 6,900 -1,380 Descending Kansas City Center
08:07PM 36.4064 -95.7619 248° West 260 299 6,500 -1,140 Descending Kansas City Center
08:08PM 36.3936 -95.8036 249° West 250 288 5,900 -600 Descending Kansas City Center
08:08PM 36.3822 -95.8397 249° West 248 285 5,900 -240 Level Kansas City Center
08:09PM 36.3692 -95.8847 250° West 232 267 5,700 -1,260 Descending Kansas City Center
08:09PM 36.3592 -95.9156 248° West 238 274 4,600 -2,100 Descending Kansas City Center
08:10PM 36.3375 -95.9589 238° Southwest 252 290 3,600 -1,680 Descending Kansas City Center
08:10PM 36.3111 -95.9703 199° South 246 283 2,900 -900 Descending Kansas City Center
08:11PM 36.2772 -95.9900 205° Southwest 233 268 2,700 -240 Descending Kansas City Center
08:11PM 36.2522 -96.0006 199° South 239 275 2,700  Level Kansas City Center
08:12PM 36.2242 -96.0044 186° South 179 206 2,700 -240 Level Kansas City Center
08:12PM 36.2044 -95.9997 169° South 197 227 2,500 -840 Descending Kansas City Center
08:13PM 36.1942 -95.9747 117° Southeast 143 165 1,900 -1,020 Descending Kansas City Center
08:14PM 36.1947 -95.9522 88° East 165 190 1,500 -840 Descending Kansas City Center
08:14PM 36.1942 -95.9256 91° East 134 154 1,100 -720 Descending Kansas City Center
08:15PM 36.1950 -95.9031 87° East 150 173 800 -540 Descending Kansas City Center